Time;durP1;ratioP1;P1;durP2;ratioP2;P2;SDS_P1;SDS_P2;PMS_P1;PMS_P2;Temp;Humidity;BMP_temperature;BMP_pressure;BME280_temperature;BME280_humidity;BME280_pressure;Samples;Min_cycle;Max_cycle;Signal;HPM_P1;HPM_P2
2022/05/08 00:00:30;;;;;;;12.65;5.95;;;14.90;99.90;;;;;;5054086;28;20025;-74
2022/05/08 00:02:57;;;;;;;13.05;6.30;;;14.90;99.90;;;;;;5054372;28;20379;-75
2022/05/08 00:05:23;;;;;;;13.48;6.25;;;15.00;99.90;;;;;;5053333;28;20036;-74
2022/05/08 00:07:49;;;;;;;14.38;6.57;;;15.00;99.90;;;;;;5054124;28;20037;-74
2022/05/08 00:10:15;;;;;;;12.02;6.38;;;15.00;99.90;;;;;;5053926;28;20504;-74
2022/05/08 00:12:41;;;;;;;9.85;5.68;;;15.10;99.90;;;;;;5053927;28;20085;-74
2022/05/08 00:15:09;;;;;;;12.55;6.47;;;15.20;99.90;;;;;;5053860;28;20025;-75
2022/05/08 00:17:34;;;;;;;19.88;7.22;;;15.10;99.90;;;;;;5019547;28;20386;-74
2022/05/08 00:20:06;;;;;;;12.45;6.43;;;15.00;99.90;;;;;;5053566;28;20029;-74
2022/05/08 00:22:32;;;;;;;14.85;6.85;;;15.00;99.90;;;;;;5036128;28;20040;-74
2022/05/08 00:24:59;;;;;;;16.95;6.28;;;14.90;99.90;;;;;;5053656;28;20104;-76
2022/05/08 00:27:24;;;;;;;21.05;6.97;;;14.80;99.90;;;;;;5053582;28;20037;-76
2022/05/08 00:29:50;;;;;;;14.40;6.78;;;14.80;99.90;;;;;;5035862;28;20051;-74
2022/05/08 00:32:16;;;;;;;13.50;6.72;;;14.80;99.90;;;;;;5053506;28;20071;-76
2022/05/08 00:34:41;;;;;;;11.98;6.38;;;14.80;99.90;;;;;;5053414;28;20445;-77
2022/05/08 00:37:07;;;;;;;13.50;6.40;;;14.90;99.90;;;;;;5053328;28;20033;-76
2022/05/08 00:39:35;;;;;;;15.18;7.40;;;14.90;99.90;;;;;;5053529;28;20452;-76
2022/05/08 00:42:01;;;;;;;12.80;6.80;;;15.00;99.90;;;;;;5053280;28;20060;-76
2022/05/08 00:44:26;;;;;;;12.77;6.47;;;15.10;99.90;;;;;;5053385;28;20033;-76
2022/05/08 00:46:52;;;;;;;10.02;6.43;;;15.10;99.90;;;;;;5053097;28;20036;-72
2022/05/08 00:49:18;;;;;;;13.23;6.85;;;15.10;99.90;;;;;;5052985;28;20481;-75
2022/05/08 00:51:47;;;;;;;14.80;7.15;;;15.00;99.90;;;;;;5053320;28;20033;-77
2022/05/08 00:54:13;;;;;;;13.40;7.00;;;14.90;99.90;;;;;;5053275;28;20028;-77
2022/05/08 00:56:40;;;;;;;15.50;6.63;;;15.10;99.90;;;;;;5035239;28;20401;-76
2022/05/08 00:59:06;;;;;;;13.88;7.05;;;14.90;99.90;;;;;;5053180;28;20024;-77
2022/05/08 01:01:32;;;;;;;13.80;6.88;;;14.90;99.90;;;;;;5053354;28;20033;-76
2022/05/08 01:03:58;;;;;;;12.48;7.65;;;14.90;99.90;;;;;;5052802;28;20060;-77
2022/05/08 01:06:24;;;;;;;15.32;7.93;;;14.80;99.90;;;;;;5052778;28;20041;-77
2022/05/08 01:08:51;;;;;;;18.15;6.40;;;14.80;99.90;;;;;;5052987;28;20037;-76
2022/05/08 01:11:18;;;;;;;11.35;6.43;;;14.40;99.90;;;;;;5052899;28;20025;-76
2022/05/08 01:13:45;;;;;;;15.23;6.22;;;14.30;99.90;;;;;;5053152;28;20025;-76
2022/05/08 01:16:13;;;;;;;11.45;7.45;;;14.20;99.90;;;;;;5052250;28;20461;-76
2022/05/08 01:18:39;;;;;;;13.27;7.55;;;14.30;99.90;;;;;;5034732;28;20393;-76
2022/05/08 01:21:08;;;;;;;14.00;6.70;;;14.30;99.90;;;;;;5052868;28;20120;-75
2022/05/08 01:23:33;;;;;;;14.82;6.00;;;14.30;99.90;;;;;;5034920;28;20075;-75
2022/05/08 01:25:59;;;;;;;9.70;5.63;;;14.30;99.90;;;;;;5052815;28;20056;-75
2022/05/08 01:28:26;;;;;;;14.07;6.28;;;14.10;99.90;;;;;;5052517;28;20041;-75
2022/05/08 01:30:55;;;;;;;14.65;5.80;;;14.00;99.90;;;;;;5034910;28;20385;-75
2022/05/08 01:33:22;;;;;;;13.43;5.90;;;14.00;99.90;;;;;;5052422;28;20025;-75
2022/05/08 01:35:52;;;;;;;14.82;6.45;;;13.90;99.90;;;;;;5052943;28;20431;-75
2022/05/08 01:38:22;;;;;;;8.68;5.70;;;13.90;99.90;;;;;;5052575;28;20477;-75
2022/05/08 01:40:48;;;;;;;12.95;6.05;;;13.90;99.90;;;;;;5052718;28;20032;-75
2022/05/08 01:43:14;;;;;;;11.18;6.10;;;13.90;99.90;;;;;;5034913;28;20082;-75
2022/05/08 01:45:40;;;;;;;15.63;6.40;;;13.60;99.90;;;;;;5052657;28;20446;-75
2022/05/08 01:48:22;;;;;;;14.50;6.90;;;13.60;99.90;;;;;;5052022;28;20116;-75
2022/05/08 01:50:55;;;;;;;12.70;6.40;;;13.70;99.90;;;;;;5052682;28;20079;-75
2022/05/08 01:53:26;;;;;;;12.45;5.90;;;13.80;99.90;;;;;;5052533;28;20435;-75
2022/05/08 01:55:54;;;;;;;16.27;6.45;;;13.80;99.90;;;;;;5052720;28;20029;-75
2022/05/08 01:58:24;;;;;;;13.23;7.03;;;13.80;99.90;;;;;;5052477;28;20499;-75
2022/05/08 02:00:51;;;;;;;17.33;6.22;;;13.50;99.90;;;;;;5052504;28;20493;-75
2022/05/08 02:03:19;;;;;;;13.73;6.65;;;13.50;99.90;;;;;;5052016;28;20040;-75
2022/05/08 02:05:45;;;;;;;14.80;6.65;;;13.50;99.90;;;;;;5052250;28;20082;-75
2022/05/08 02:08:11;;;;;;;13.10;6.53;;;13.40;99.90;;;;;;5052194;28;20036;-75
2022/05/08 02:10:38;;;;;;;12.77;6.47;;;13.50;99.90;;;;;;5052411;28;20025;-76
2022/05/08 02:13:07;;;;;;;10.70;7.20;;;13.60;99.90;;;;;;5052367;28;20024;-75
2022/05/08 02:15:33;;;;;;;19.80;8.48;;;13.50;99.90;;;;;;5052106;28;20488;-75
2022/05/08 02:18:03;;;;;;;16.58;7.25;;;13.40;99.90;;;;;;5052358;28;20029;-75
2022/05/08 02:20:29;;;;;;;13.07;6.68;;;13.40;99.90;;;;;;5052337;28;20473;-75
2022/05/08 02:22:57;;;;;;;13.68;7.43;;;13.40;99.90;;;;;;5052139;28;20024;-75
2022/05/08 02:25:23;;;;;;;16.65;8.00;;;13.20;99.90;;;;;;5052166;28;20024;-75
2022/05/08 02:27:49;;;;;;;13.93;7.82;;;13.20;99.90;;;;;;5054714;28;20059;-75
2022/05/08 02:30:18;;;;;;;19.35;8.25;;;13.10;99.90;;;;;;5055641;28;20049;-75
2022/05/08 02:32:44;;;;;;;14.18;7.47;;;13.10;99.90;;;;;;5056093;28;20424;-74
2022/05/08 02:35:10;;;;;;;17.00;8.70;;;13.00;99.90;;;;;;5070717;28;20051;-74
2022/05/08 02:37:40;;;;;;;12.85;7.15;;;13.00;99.90;;;;;;5075882;28;20035;-75
2022/05/08 02:40:11;;;;;;;17.27;8.18;;;13.00;99.90;;;;;;5057823;28;20032;-75
2022/05/08 02:42:38;;;;;;;13.00;7.90;;;12.80;99.90;;;;;;5075679;28;20024;-74
2022/05/08 02:45:05;;;;;;;11.45;7.85;;;12.70;99.90;;;;;;5041785;28;20026;-75
2022/05/08 02:47:35;;;;;;;15.50;8.38;;;12.80;99.90;;;;;;5047400;28;20037;-75
2022/05/08 02:50:01;;;;;;;15.77;8.02;;;12.90;99.90;;;;;;5055550;28;20033;-75
2022/05/08 02:52:26;;;;;;;13.63;8.20;;;12.90;99.90;;;;;;5055436;28;20485;-75
2022/05/08 02:54:52;;;;;;;15.20;8.98;;;12.90;99.90;;;;;;5037813;28;20094;-76
2022/05/08 03:00:06;;;;;;;16.92;8.43;;;13.00;99.90;;;;;;5055013;28;20477;-75
2022/05/08 03:02:36;;;;;;;13.70;8.27;;;13.00;99.90;;;;;;5037334;28;20040;-75
2022/05/08 03:05:03;;;;;;;17.48;8.02;;;13.10;99.90;;;;;;5037327;28;20120;-75
2022/05/08 03:07:29;;;;;;;11.38;8.30;;;13.10;99.90;;;;;;5055172;28;20028;-76
2022/05/08 03:09:56;;;;;;;16.10;7.63;;;13.00;99.90;;;;;;5037313;28;20041;-75
2022/05/08 03:12:22;;;;;;;14.50;8.13;;;12.80;99.90;;;;;;5020840;28;20021;-75
2022/05/08 03:14:49;;;;;;;22.42;9.93;;;12.80;99.90;;;;;;5037144;28;20073;-75
2022/05/08 03:17:15;;;;;;;12.77;7.25;;;12.80;99.90;;;;;;5055345;28;20021;-75
2022/05/08 03:19:41;;;;;;;19.67;8.70;;;12.70;99.90;;;;;;5054968;28;20033;-75
2022/05/08 03:22:07;;;;;;;16.40;8.27;;;12.60;99.90;;;;;;5055038;28;20040;-76
2022/05/08 03:24:32;;;;;;;12.68;8.20;;;12.60;99.90;;;;;;5036890;28;20040;-74
2022/05/08 03:26:58;;;;;;;14.07;8.20;;;12.60;99.90;;;;;;5037145;28;20017;-75
2022/05/08 03:29:26;;;;;;;17.20;7.90;;;12.60;99.90;;;;;;5053779;28;20040;-75
2022/05/08 03:31:52;;;;;;;13.55;8.60;;;12.50;99.90;;;;;;5054836;28;20069;-75
2022/05/08 03:34:21;;;;;;;13.80;8.98;;;12.50;99.90;;;;;;5054584;28;20109;-75
2022/05/08 03:36:47;;;;;;;14.88;8.23;;;12.50;99.90;;;;;;5054737;28;20485;-75
2022/05/08 03:39:12;;;;;;;13.80;8.52;;;12.50;99.90;;;;;;5054123;28;20056;-75
2022/05/08 03:41:39;;;;;;;12.68;8.98;;;12.60;99.90;;;;;;5054535;28;20033;-75
2022/05/08 03:44:05;;;;;;;12.98;8.63;;;12.70;99.90;;;;;;5054449;28;20166;-75
2022/05/08 03:46:31;;;;;;;15.05;8.45;;;12.80;99.90;;;;;;5054124;28;20489;-75
2022/05/08 03:48:56;;;;;;;19.67;8.40;;;12.90;99.90;;;;;;5054486;28;20075;-75
2022/05/08 03:51:22;;;;;;;15.32;8.75;;;12.80;99.90;;;;;;5054338;28;20021;-75
2022/05/08 03:53:48;;;;;;;15.00;8.27;;;12.90;99.90;;;;;;5054623;28;20378;-75
2022/05/08 03:56:14;;;;;;;21.35;9.45;;;12.90;99.90;;;;;;5054188;28;20386;-75
2022/05/08 03:58:41;;;;;;;15.63;8.80;;;12.90;99.90;;;;;;5053971;28;20056;-75
2022/05/08 04:01:06;;;;;;;21.63;9.38;;;12.80;99.90;;;;;;5054265;28;20037;-75
2022/05/08 04:03:32;;;;;;;15.75;8.25;;;12.70;99.90;;;;;;5054033;28;20032;-75
2022/05/08 04:05:58;;;;;;;15.00;9.45;;;13.00;99.90;;;;;;5036081;28;20551;-75
2022/05/08 04:08:24;;;;;;;13.75;8.52;;;13.10;99.90;;;;;;5053894;28;20025;-75
2022/05/08 04:10:49;;;;;;;17.50;8.40;;;13.00;99.90;;;;;;5036281;28;20425;-75
2022/05/08 04:13:15;;;;;;;17.90;9.10;;;12.90;99.90;;;;;;5053821;28;20036;-74
2022/05/08 04:18:25;;;;;;;28.00;9.50;;;12.60;99.90;;;;;;5053840;28;20072;-75
2022/05/08 04:20:51;;;;;;;14.15;8.80;;;12.40;99.90;;;;;;5053830;28;20021;-75
2022/05/08 04:26:01;;;;;;;18.95;8.32;;;12.50;99.90;;;;;;5053413;28;20037;-75
2022/05/08 04:28:27;;;;;;;16.23;9.35;;;12.60;99.90;;;;;;5053571;28;20071;-75
2022/05/08 04:30:52;;;;;;;21.13;9.43;;;12.60;99.90;;;;;;5053596;28;20082;-75
2022/05/08 04:33:18;;;;;;;23.30;9.30;;;12.80;99.90;;;;;;5053765;28;20470;-75
2022/05/08 04:35:44;;;;;;;15.50;8.95;;;12.70;99.90;;;;;;5053607;28;20033;-75
2022/05/08 04:38:11;;;;;;;17.58;8.75;;;12.60;99.90;;;;;;5053550;28;20021;-75
2022/05/08 04:40:41;;;;;;;20.60;8.88;;;12.50;99.90;;;;;;5053111;28;20375;-75
2022/05/08 04:43:08;;;;;;;18.73;9.90;;;12.60;99.90;;;;;;5053556;28;20021;-75
2022/05/08 04:45:33;;;;;;;19.15;9.18;;;12.70;99.90;;;;;;5053282;28;20414;-75
2022/05/08 04:47:59;;;;;;;15.80;7.75;;;12.70;99.90;;;;;;5053145;28;20060;-75
2022/05/08 04:50:25;;;;;;;15.77;9.18;;;12.80;99.90;;;;;;5034506;28;20405;-75
2022/05/08 04:52:50;;;;;;;20.60;8.65;;;12.90;99.90;;;;;;5053332;28;20056;-75
2022/05/08 04:55:16;;;;;;;23.02;8.65;;;13.00;99.90;;;;;;5035265;28;20473;-75
2022/05/08 04:57:42;;;;;;;16.05;8.20;;;13.10;99.90;;;;;;5053137;28;20029;-75
2022/05/08 05:00:08;;;;;;;20.70;9.13;;;13.00;99.90;;;;;;5053275;28;20385;-75
2022/05/08 05:02:34;;;;;;;17.42;8.30;;;13.00;99.90;;;;;;5052922;28;20174;-75
2022/05/08 05:05:00;;;;;;;20.77;8.80;;;12.70;99.90;;;;;;5053250;28;20100;-75
2022/05/08 05:07:27;;;;;;;18.13;8.40;;;12.80;99.90;;;;;;5052892;28;20174;-75
2022/05/08 05:09:52;;;;;;;17.42;8.45;;;12.90;99.90;;;;;;5052810;28;20052;-75
2022/05/08 05:12:18;;;;;;;15.55;8.70;;;13.00;99.90;;;;;;5052920;28;20021;-74
2022/05/08 05:14:44;;;;;;;21.38;9.65;;;13.20;99.90;;;;;;5035190;28;20100;-75
2022/05/08 05:17:10;;;;;;;17.65;8.77;;;13.30;99.90;;;;;;5052876;28;20024;-74
2022/05/08 05:19:36;;;;;;;27.25;10.15;;;13.20;99.90;;;;;;5052926;28;20029;-75
2022/05/08 05:22:02;;;;;;;22.13;8.30;;;13.40;99.90;;;;;;5052926;28;20384;-75
2022/05/08 05:24:30;;;;;;;23.35;9.23;;;13.30;99.90;;;;;;5047648;28;20018;-75
2022/05/08 05:26:55;;;;;;;22.55;9.18;;;13.20;99.90;;;;;;5041533;28;20130;-75
2022/05/08 05:29:21;;;;;;;19.13;8.82;;;13.10;99.90;;;;;;5032911;28;20033;-75
2022/05/08 05:31:47;;;;;;;21.92;9.27;;;13.10;99.90;;;;;;5032844;28;20095;-75
2022/05/08 05:34:12;;;;;;;21.23;7.80;;;13.30;99.90;;;;;;5033027;28;20082;-75
2022/05/08 05:36:38;;;;;;;24.35;7.97;;;13.30;99.90;;;;;;5032798;28;20133;-75
2022/05/08 05:39:04;;;;;;;17.17;7.75;;;13.30;99.90;;;;;;5032625;28;20028;-75
2022/05/08 05:41:30;;;;;;;15.45;7.50;;;13.40;99.90;;;;;;5015324;28;20036;-75
2022/05/08 05:43:57;;;;;;;22.23;7.88;;;13.30;99.90;;;;;;5032929;28;20025;-75
2022/05/08 05:49:07;;;;;;;15.98;6.72;;;12.90;99.90;;;;;;5054792;28;20044;-75
2022/05/08 05:51:32;;;;;;;22.48;7.28;;;13.00;99.90;;;;;;5052725;28;20369;-74
2022/05/08 05:53:59;;;;;;;20.38;6.80;;;13.00;99.90;;;;;;5053486;28;20029;-75
2022/05/08 05:56:25;;;;;;;20.15;7.68;;;13.00;99.90;;;;;;5054850;28;20115;-75
2022/05/08 05:58:51;;;;;;;20.73;7.32;;;13.10;99.90;;;;;;5054410;28;20478;-75
2022/05/08 06:01:17;;;;;;;18.55;7.75;;;13.10;99.90;;;;;;5052927;28;20029;-75
2022/05/08 06:03:42;;;;;;;16.38;7.82;;;13.00;99.90;;;;;;5056199;28;20025;-74
2022/05/08 06:06:08;;;;;;;20.73;7.13;;;13.10;99.90;;;;;;5056646;28;20032;-74
2022/05/08 06:08:34;;;;;;;25.35;8.35;;;13.30;99.90;;;;;;5055761;28;20045;-75
2022/05/08 06:10:59;;;;;;;18.80;6.43;;;13.30;99.90;;;;;;5056369;28;20032;-75
2022/05/08 06:13:25;;;;;;;18.20;6.57;;;13.20;99.90;;;;;;5056256;28;20029;-75
2022/05/08 06:15:51;;;;;;;18.17;7.15;;;13.20;99.90;;;;;;5056235;28;20474;-75
2022/05/08 06:18:16;;;;;;;22.63;7.88;;;13.20;99.90;;;;;;5056248;28;20462;-75
2022/05/08 06:20:42;;;;;;;21.25;6.75;;;13.40;99.90;;;;;;5056122;28;20025;-76
2022/05/08 06:23:08;;;;;;;25.25;7.57;;;13.50;99.90;;;;;;5055762;28;20033;-75
2022/05/08 06:25:34;;;;;;;17.92;6.28;;;13.60;99.90;;;;;;5055997;28;20057;-76
2022/05/08 06:27:59;;;;;;;20.83;6.95;;;13.50;99.90;;;;;;5038134;28;20480;-75
2022/05/08 06:30:25;;;;;;;18.98;5.88;;;13.40;99.90;;;;;;5056017;28;20040;-76
2022/05/08 06:32:51;;;;;;;22.60;7.00;;;13.60;99.90;;;;;;5038087;28;20060;-75
2022/05/08 06:35:16;;;;;;;31.60;6.78;;;13.80;99.90;;;;;;5056226;28;20025;-76
2022/05/08 06:37:42;;;;;;;19.23;6.65;;;13.50;99.90;;;;;;5055635;28;20116;-74
2022/05/08 06:40:08;;;;;;;24.92;6.35;;;13.60;99.90;;;;;;5038007;28;20025;-74
2022/05/08 06:42:34;;;;;;;25.38;6.35;;;13.60;99.90;;;;;;5038025;28;20366;-75
2022/05/08 06:45:02;;;;;;;19.20;5.53;;;13.70;99.90;;;;;;5037671;28;20431;-75
2022/05/08 06:47:28;;;;;;;24.60;6.25;;;13.70;99.90;;;;;;5055656;28;20053;-75
2022/05/08 06:49:54;;;;;;;18.25;5.85;;;13.80;99.90;;;;;;5037550;28;20084;-74
2022/05/08 06:52:19;;;;;;;18.40;6.65;;;13.90;99.90;;;;;;5054512;28;20521;-73
2022/05/08 06:54:45;;;;;;;18.48;5.30;;;14.00;99.90;;;;;;5019742;28;20068;-74
2022/05/08 06:57:12;;;;;;;18.92;5.57;;;14.40;99.90;;;;;;5047134;28;20020;-76
2022/05/08 07:02:23;;;;;;;18.23;6.28;;;14.40;99.90;;;;;;5050601;28;20468;-76
2022/05/08 07:04:48;;;;;;;25.27;6.47;;;14.40;99.90;;;;;;5054233;28;20036;-76
2022/05/08 07:07:14;;;;;;;23.13;6.45;;;14.40;99.90;;;;;;5060332;28;20036;-76
2022/05/08 07:09:41;;;;;;;28.63;6.18;;;14.20;99.90;;;;;;5057375;28;20477;-76
2022/05/08 07:12:09;;;;;;;17.08;5.63;;;14.50;99.90;;;;;;5033254;28;20017;-76
2022/05/08 07:14:34;;;;;;;15.80;5.95;;;14.70;99.90;;;;;;5040925;28;20035;-74
2022/05/08 07:17:00;;;;;;;25.83;6.53;;;15.00;99.90;;;;;;5053911;28;20029;-76
2022/05/08 07:19:27;;;;;;;26.55;5.60;;;15.10;99.90;;;;;;5054100;28;20473;-76
2022/05/08 07:21:52;;;;;;;21.40;6.40;;;14.90;99.90;;;;;;5037494;28;20027;-76
2022/05/08 07:24:18;;;;;;;24.60;6.03;;;14.90;99.90;;;;;;5048461;28;20040;-76
2022/05/08 07:26:45;;;;;;;21.45;5.57;;;14.80;99.90;;;;;;5043069;28;20071;-76
2022/05/08 07:29:11;;;;;;;20.27;5.85;;;15.00;99.90;;;;;;5041636;28;20406;-76
2022/05/08 07:31:38;;;;;;;19.00;5.18;;;15.00;99.90;;;;;;5050134;28;20037;-75
2022/05/08 07:36:47;;;;;;;28.73;5.78;;;15.10;99.90;;;;;;5044381;28;20026;-76
2022/05/08 07:39:13;;;;;;;21.48;6.93;;;15.30;99.90;;;;;;5047254;28;20488;-75
2022/05/08 07:41:39;;;;;;;26.33;5.90;;;15.30;99.90;;;;;;5019548;28;20034;-75
2022/05/08 07:44:05;;;;;;;16.55;6.22;;;15.20;99.90;;;;;;5032514;28;20037;-75
2022/05/08 07:46:30;;;;;;;20.88;5.07;;;15.30;99.90;;;;;;5036877;28;20573;-76
2022/05/08 07:48:56;;;;;;;23.20;5.43;;;15.80;99.90;;;;;;5044370;28;20512;-75
2022/05/08 07:51:22;;;;;;;23.30;6.30;;;16.00;99.90;;;;;;5042476;28;20021;-75
2022/05/08 07:53:48;;;;;;;27.65;6.53;;;16.20;99.90;;;;;;5053270;28;20048;-76
2022/05/08 07:56:14;;;;;;;21.60;5.25;;;16.20;99.90;;;;;;5052710;28;20017;-76
2022/05/08 07:58:39;;;;;;;23.15;4.90;;;16.30;99.90;;;;;;5057708;28;20384;-74
2022/05/08 08:01:05;;;;;;;20.85;4.45;;;16.60;99.90;;;;;;5070197;28;20102;-75
2022/05/08 08:03:33;;;;;;;20.00;5.00;;;16.50;98.70;;;;;;5060412;28;20389;-75
2022/05/08 08:05:59;;;;;;;19.02;4.22;;;16.60;98.30;;;;;;5035025;28;20064;-76
2022/05/08 08:08:25;;;;;;;21.77;4.45;;;16.50;97.10;;;;;;5064076;28;20490;-76
2022/05/08 08:10:58;;;;;;;21.85;4.47;;;16.80;97.60;;;;;;5033642;28;20223;-75
2022/05/08 08:13:28;;;;;;;16.63;4.60;;;16.50;97.20;;;;;;5063045;28;20033;-76
2022/05/08 08:15:55;;;;;;;19.48;4.22;;;16.50;98.10;;;;;;5067354;28;20393;-76
2022/05/08 08:18:21;;;;;;;18.67;4.68;;;16.70;98.80;;;;;;5057584;28;20032;-76
2022/05/08 08:20:47;;;;;;;22.10;5.22;;;17.00;99.00;;;;;;5052819;28;20032;-76
2022/05/08 08:23:13;;;;;;;24.23;5.38;;;17.20;99.40;;;;;;5048658;28;20104;-75
2022/05/08 08:25:39;;;;;;;21.75;5.25;;;16.90;99.90;;;;;;5049161;28;20028;-77
2022/05/08 08:28:05;;;;;;;26.02;4.80;;;17.20;99.90;;;;;;5033033;28;20028;-76
2022/05/08 08:30:31;;;;;;;21.48;5.28;;;17.20;99.40;;;;;;5044620;28;20052;-76
2022/05/08 08:32:57;;;;;;;19.92;5.38;;;17.10;99.40;;;;;;5061719;28;20473;-76
2022/05/08 08:35:23;;;;;;;24.83;4.75;;;17.00;98.70;;;;;;5053183;28;20033;-75
2022/05/08 08:37:48;;;;;;;21.70;5.03;;;17.10;98.90;;;;;;5036148;28;20116;-75
2022/05/08 08:40:14;;;;;;;23.45;5.95;;;17.30;97.00;;;;;;5048214;28;20032;-74
2022/05/08 08:42:42;;;;;;;21.00;4.55;;;17.20;97.50;;;;;;5041149;28;20029;-76
2022/05/08 08:48:03;;;;;;;21.20;5.35;;;17.50;98.00;;;;;;5049071;28;20035;-76
2022/05/08 08:50:29;;;;;;;18.52;4.80;;;17.50;96.80;;;;;;5052600;28;20031;-76
2022/05/08 08:53:00;;;;;;;20.20;4.00;;;17.40;97.50;;;;;;5046622;28;20048;-76
2022/05/08 08:55:26;;;;;;;21.73;4.97;;;17.80;97.70;;;;;;5037984;28;20038;-76
2022/05/08 08:57:52;;;;;;;16.88;4.18;;;18.00;96.10;;;;;;5048749;28;20351;-75
2022/05/08 09:00:18;;;;;;;16.90;4.28;;;18.20;95.60;;;;;;5037734;28;20032;-76
2022/05/08 09:02:47;;;;;;;18.50;4.50;;;18.00;96.40;;;;;;5046408;28;20036;-74
2022/05/08 09:05:13;;;;;;;16.00;4.03;;;18.10;96.20;;;;;;5052141;28;20037;-76
2022/05/08 09:07:48;;;;;;;26.17;6.05;;;18.00;94.80;;;;;;5038782;28;20052;-76
2022/05/08 09:10:25;;;;;;;27.02;4.47;;;18.00;94.50;;;;;;5048375;28;20032;-76
2022/05/08 09:12:56;;;;;;;20.63;4.28;;;18.30;95.30;;;;;;5024413;28;20466;-75
2022/05/08 09:15:33;;;;;;;12.90;4.05;;;18.40;93.80;;;;;;5046450;28;20044;-75
2022/05/08 09:18:05;;;;;;;13.65;3.70;;;18.40;93.30;;;;;;5035274;28;20026;-76
2022/05/08 09:20:31;;;;;;;;;;;18.60;93.70;;;;;;5027566;28;20109;-76
2022/05/08 09:23:00;;;;;;;18.52;4.00;;;18.60;94.30;;;;;;5051852;28;19991;-76
2022/05/08 09:25:44;;;;;;;36.40;5.72;;;18.30;93.80;;;;;;5037649;28;20363;-76
2022/05/08 09:28:33;;;;;;;18.00;3.85;;;18.00;94.00;;;;;;5036136;28;20091;-77
2022/05/08 09:31:01;;;;;;;17.17;3.67;;;18.00;94.50;;;;;;5050913;28;20025;-77
2022/05/08 09:33:36;;;;;;;15.38;3.42;;;18.40;94.60;;;;;;5052134;28;20071;-77
2022/05/08 09:36:09;;;;;;;21.58;4.10;;;18.80;93.00;;;;;;5035350;28;20029;-77
2022/05/08 09:38:48;;;;;;;19.40;3.65;;;18.70;93.50;;;;;;5059150;28;20068;-77
2022/05/08 09:41:19;;;;;;;18.63;3.40;;;18.90;92.60;;;;;;5041346;28;20033;-77
2022/05/08 09:43:45;;;;;;;18.15;3.85;;;19.00;94.20;;;;;;5059200;28;20394;-78
2022/05/08 09:46:11;;;;;;;12.38;3.45;;;19.30;93.50;;;;;;5058540;28;20096;-77
2022/05/08 09:48:37;;;;;;;14.98;3.40;;;19.30;92.00;;;;;;5058758;28;20470;-77
2022/05/08 09:51:11;;;;;;;14.57;3.47;;;19.40;91.00;;;;;;5058875;28;20047;-77
2022/05/08 09:53:41;;;;;;;15.38;3.45;;;19.40;91.50;;;;;;5059020;28;20036;-77
2022/05/08 09:56:09;;;;;;;18.70;4.65;;;19.70;91.00;;;;;;5059269;28;20021;-77
2022/05/08 09:58:35;;;;;;;16.27;3.42;;;19.80;91.50;;;;;;5058835;28;20074;-75
2022/05/08 10:01:03;;;;;;;12.85;3.50;;;19.80;90.70;;;;;;5040905;28;20032;-74
2022/05/08 10:03:30;;;;;;;11.68;2.78;;;20.10;90.50;;;;;;5058742;28;20021;-77
2022/05/08 10:05:59;;;;;;;12.90;3.97;;;20.10;87.80;;;;;;5058846;28;20055;-76
2022/05/08 10:08:35;;;;;;;14.57;3.00;;;20.10;90.00;;;;;;5058579;28;20108;-76
2022/05/08 10:14:07;;;;;;;12.60;2.55;;;20.00;89.30;;;;;;5058651;28;20107;-75
2022/05/08 10:16:48;;;;;;;17.85;3.10;;;20.30;88.20;;;;;;5041026;28;20379;-75
2022/05/08 10:19:34;;;;;;;11.18;2.80;;;20.60;89.50;;;;;;5058842;28;20477;-76
2022/05/08 10:22:03;;;;;;;11.30;2.55;;;20.30;88.70;;;;;;5041464;28;20045;-76
2022/05/08 10:24:40;;;;;;;11.98;2.92;;;20.10;86.00;;;;;;5058647;28;20120;-75
2022/05/08 10:27:24;;;;;;;10.48;2.83;;;20.00;86.00;;;;;;5058791;28;20032;-74
2022/05/08 10:29:49;;;;;;;13.52;3.80;;;19.90;86.10;;;;;;5061611;28;20032;-75
2022/05/08 10:32:44;;;;;;;12.93;3.25;;;20.40;86.40;;;;;;5060826;28;20522;-76
2022/05/08 10:35:11;;;;;;;12.32;2.83;;;20.50;85.90;;;;;;5071053;28;20040;-76
2022/05/08 10:37:38;;;;;;;17.15;2.75;;;20.70;84.40;;;;;;5078792;28;20032;-76
2022/05/08 10:40:25;;;;;;;12.07;2.97;;;20.70;84.80;;;;;;5078648;28;20020;-75
2022/05/08 10:42:54;;;;;;;8.65;2.25;;;21.00;83.90;;;;;;5078630;28;20037;-75
2022/05/08 10:45:37;;;;;;;8.73;2.55;;;20.40;83.60;;;;;;5078355;28;20423;-76
2022/05/08 10:48:15;;;;;;;6.88;2.13;;;20.80;83.60;;;;;;5060839;28;20025;-75
2022/05/08 10:50:52;;;;;;;11.57;2.53;;;20.80;83.50;;;;;;5055256;28;20461;-74
2022/05/08 10:53:32;;;;;;;7.97;2.10;;;20.80;82.60;;;;;;5055595;28;20478;-75
2022/05/08 10:56:18;;;;;;;7.97;1.83;;;21.00;81.30;;;;;;5055468;28;20038;-75
2022/05/08 10:58:53;;;;;;;13.93;3.42;;;21.10;81.90;;;;;;5054867;28;20060;-75
2022/05/08 11:01:19;;;;;;;8.75;2.63;;;21.30;81.10;;;;;;5037371;28;20090;-75
2022/05/08 11:03:44;;;;;;;10.27;2.63;;;21.20;78.90;;;;;;5055052;28;20068;-75
2022/05/08 11:06:19;;;;;;;12.32;3.10;;;20.50;80.70;;;;;;5054972;28;20029;-76
2022/05/08 11:08:45;;;;;;;13.98;3.15;;;21.00;81.90;;;;;;5055011;28;20450;-74
2022/05/08 11:11:11;;;;;;;9.93;2.25;;;21.30;80.50;;;;;;5054886;28;20048;-75
2022/05/08 11:13:46;;;;;;;13.40;3.35;;;21.30;79.40;;;;;;5054714;28;20037;-76
2022/05/08 11:16:15;;;;;;;11.20;1.90;;;21.60;81.40;;;;;;5054766;28;20049;-75
2022/05/08 11:18:40;;;;;;;8.13;2.20;;;21.10;79.30;;;;;;5055041;28;20029;-75
2022/05/08 11:21:09;;;;;;;13.98;2.53;;;21.50;80.30;;;;;;5054764;28;20029;-75
2022/05/08 11:23:39;;;;;;;8.63;2.28;;;21.70;79.30;;;;;;5036843;28;20108;-75
2022/05/08 11:26:08;;;;;;;13.30;2.70;;;22.00;79.90;;;;;;5054792;28;20508;-74
2022/05/08 11:28:36;;;;;;;14.98;3.03;;;22.10;81.10;;;;;;5054469;28;20017;-75
2022/05/08 11:31:13;;;;;;;15.40;2.42;;;22.40;81.30;;;;;;5036940;28;20040;-75
2022/05/08 11:36:32;;;;;;;8.85;1.70;;;22.30;80.60;;;;;;5054803;28;20037;-75
2022/05/08 11:39:02;;;;;;;10.77;2.30;;;22.30;78.30;;;;;;5036769;28;20075;-75
2022/05/08 11:41:40;;;;;;;7.95;1.98;;;22.40;77.10;;;;;;5036487;28;20021;-74
2022/05/08 11:44:32;;;;;;;11.35;2.33;;;22.60;79.50;;;;;;5054489;28;20033;-75
2022/05/08 11:46:58;;;;;;;10.25;2.00;;;22.50;77.90;;;;;;5049822;28;20041;-75
2022/05/08 11:49:29;;;;;;;8.95;1.95;;;22.80;77.10;;;;;;5054389;28;20037;-75
2022/05/08 11:51:59;;;;;;;8.00;2.13;;;22.70;76.60;;;;;;5054345;28;20032;-75
2022/05/08 11:54:32;;;;;;;11.05;2.55;;;22.70;76.80;;;;;;5054345;28;20114;-75
2022/05/08 11:57:17;;;;;;;8.10;2.10;;;22.80;76.10;;;;;;5054023;28;20041;-75
2022/05/08 12:00:07;;;;;;;9.18;1.88;;;23.00;76.30;;;;;;5053651;28;20040;-76
2022/05/08 12:02:41;;;;;;;7.95;2.40;;;22.90;74.40;;;;;;5046362;28;20397;-75
2022/05/08 12:05:17;;;;;;;4.72;1.42;;;22.60;73.50;;;;;;5053782;28;20048;-75
2022/05/08 12:07:45;;;;;;;10.18;2.28;;;23.10;75.10;;;;;;5054097;28;20040;-75
2022/05/08 12:10:12;;;;;;;12.93;2.50;;;23.80;75.40;;;;;;5053639;28;20025;-75
2022/05/08 12:12:39;;;;;;;7.40;2.20;;;24.30;75.70;;;;;;5053906;28;20032;-76
2022/05/08 12:15:08;;;;;;;5.97;1.83;;;23.90;74.70;;;;;;5053927;28;20501;-75
2022/05/08 12:17:39;;;;;;;9.27;2.33;;;23.90;73.30;;;;;;5053762;28;20041;-75
2022/05/08 12:20:29;;;;;;;8.85;1.90;;;24.20;74.30;;;;;;5036002;28;20065;-76
2022/05/08 12:23:04;;;;;;;5.07;1.65;;;24.30;75.20;;;;;;5036047;28;20029;-76
2022/05/08 12:25:35;;;;;;;7.40;2.00;;;24.20;73.60;;;;;;5060836;28;20551;-74
2022/05/08 12:28:01;;;;;;;11.25;1.75;;;24.50;73.20;;;;;;5072900;28;20115;-75
2022/05/08 12:30:26;;;;;;;5.65;1.45;;;23.60;72.30;;;;;;5072906;28;20115;-75
2022/05/08 12:32:54;;;;;;;9.00;2.00;;;23.70;75.20;;;;;;5072792;28;20037;-76
2022/05/08 12:35:19;;;;;;;4.45;1.45;;;24.60;72.20;;;;;;5073403;28;20039;-75
2022/05/08 12:37:49;;;;;;;6.68;2.15;;;24.70;72.20;;;;;;5073355;28;20029;-76
2022/05/08 12:40:16;;;;;;;4.97;1.58;;;24.60;71.80;;;;;;5073134;28;20119;-76
2022/05/08 12:42:43;;;;;;;9.10;2.47;;;24.80;71.00;;;;;;5072474;28;20110;-76
2022/05/08 12:45:12;;;;;;;5.13;1.45;;;24.80;70.60;;;;;;5073336;28;20481;-75
2022/05/08 12:47:38;;;;;;;9.68;2.00;;;24.90;71.80;;;;;;5060094;28;20393;-75
2022/05/08 12:50:07;;;;;;;6.80;1.63;;;24.90;71.00;;;;;;5053139;28;20040;-76
2022/05/08 12:52:35;;;;;;;9.55;1.98;;;24.90;71.00;;;;;;5053112;28;20020;-75
2022/05/08 12:55:02;;;;;;;10.52;2.33;;;24.50;70.80;;;;;;5052961;28;20067;-76
2022/05/08 13:00:12;;;;;;;9.70;1.90;;;25.40;69.30;;;;;;5068440;28;20064;-76
2022/05/08 13:02:38;;;;;;;8.38;2.47;;;25.70;70.60;;;;;;5070326;28;20490;-76
2022/05/08 13:05:04;;;;;;;8.88;2.58;;;26.10;69.40;;;;;;5052618;28;20029;-76
2022/05/08 13:07:30;;;;;;;7.57;2.10;;;26.00;68.60;;;;;;5052881;28;20044;-75
2022/05/08 13:09:56;;;;;;;14.15;2.50;;;25.80;70.40;;;;;;5052879;28;20033;-75